createdAt,value
2023-05-25T00:01:50.185Z,97.06
2023-05-25T00:04:19.625Z,98.40
2023-05-25T00:06:48.547Z,98.41
2023-05-25T00:09:16.356Z,97.96
2023-05-25T00:11:43.815Z,96.45
2023-05-25T00:14:11.368Z,95.68
2023-05-25T00:16:40.508Z,95.01
2023-05-25T00:19:10.578Z,94.89
2023-05-25T00:21:39.073Z,95.94
2023-05-25T00:24:08.981Z,97.18
2023-05-25T00:26:36.635Z,97.72
2023-05-25T00:29:04.393Z,98.61
2023-05-25T00:31:32.961Z,98.18
2023-05-25T00:34:00.739Z,98.94
2023-05-25T00:36:28.267Z,97.53
2023-05-25T00:38:55.735Z,96.39
2023-05-25T00:41:26.044Z,95.86
2023-05-25T00:43:53.489Z,95.44
2023-05-25T00:46:21.136Z,95.36
2023-05-25T00:48:48.672Z,95.22
2023-05-25T00:51:16.896Z,96.48
2023-05-25T00:53:44.485Z,97.77
2023-05-25T00:56:16.196Z,99.16
2023-05-25T00:58:47.526Z,99.64
2023-05-25T01:01:16.338Z,98.26
2023-05-25T01:03:47.227Z,97.35
2023-05-25T01:06:16.898Z,96.30
2023-05-25T01:08:50.971Z,96.63
2023-05-25T01:11:23.100Z,96.50
2023-05-25T01:13:54.225Z,96.65
2023-05-25T01:16:22.000Z,98.42
2023-05-25T01:18:52.762Z,99.42
2023-05-25T01:21:27.030Z,99.32
2023-05-25T01:24:03.655Z,98.55
2023-05-25T01:26:35.423Z,98.58
2023-05-25T01:29:03.582Z,98.98
2023-05-25T01:31:31.296Z,99.26
2023-05-25T01:33:59.037Z,97.75
2023-05-25T01:36:27.816Z,97.89
2023-05-25T01:38:55.549Z,97.39
2023-05-25T01:41:22.988Z,97.83
2023-05-25T01:43:50.894Z,99.38
2023-05-25T01:46:23.517Z,98.63
2023-05-25T01:48:58.613Z,98.62
2023-05-25T01:51:37.652Z,100.00
2023-05-25T01:54:11.135Z,100.00
2023-05-25T01:56:40.209Z,100.00
2023-05-25T01:59:09.864Z,100.00
2023-05-25T02:01:38.411Z,99.15
2023-05-25T02:04:06.360Z,98.20
2023-05-25T02:06:36.685Z,98.71
2023-05-25T02:09:04.471Z,100.00
2023-05-25T02:11:31.965Z,99.24
2023-05-25T02:13:59.420Z,99.45
2023-05-25T02:16:27.870Z,98.04
2023-05-25T02:18:58.024Z,99.62
2023-05-25T02:21:25.478Z,98.26
2023-05-25T02:23:54.914Z,100.00
2023-05-25T02:26:22.538Z,100.00
2023-05-25T02:28:49.995Z,100.00
2023-05-25T02:31:17.514Z,100.00
2023-05-25T02:33:44.926Z,100.00
2023-05-25T02:36:12.330Z,100.00
2023-05-25T02:38:39.843Z,100.00
2023-05-25T02:41:08.571Z,100.00
2023-05-25T02:43:37.476Z,100.00
2023-05-25T02:46:04.918Z,100.00
2023-05-25T02:48:32.365Z,100.00
2023-05-25T02:50:59.779Z,100.00
2023-05-25T02:53:27.285Z,99.91
2023-05-25T02:55:54.805Z,99.26
2023-05-25T02:58:23.572Z,98.98
2023-05-25T03:00:51.576Z,99.05
2023-05-25T03:03:19.174Z,100.00
2023-05-25T03:05:47.308Z,99.45
2023-05-25T03:08:14.755Z,97.25
2023-05-25T03:10:42.206Z,97.07
2023-05-25T03:13:09.629Z,96.68
2023-05-25T03:15:40.147Z,96.38
2023-05-25T03:18:07.615Z,98.46
2023-05-25T03:20:35.243Z,99.44
2023-05-25T03:23:02.770Z,99.76
2023-05-25T03:25:30.720Z,100.00
2023-05-25T03:27:58.307Z,98.99
2023-05-25T03:30:26.047Z,100.00
2023-05-25T03:32:54.906Z,98.63
2023-05-25T03:35:22.444Z,98.21
2023-05-25T03:37:49.860Z,99.04
2023-05-25T03:40:17.327Z,99.69
2023-05-25T03:42:44.791Z,99.78
2023-05-25T03:45:12.488Z,99.33
2023-05-25T03:47:39.931Z,100.00
2023-05-25T03:50:09.701Z,100.00
2023-05-25T03:52:37.155Z,99.93
2023-05-25T03:55:05.406Z,98.52
2023-05-25T03:57:32.851Z,98.02
2023-05-25T04:00:00.427Z,98.10
2023-05-25T04:02:27.944Z,98.55
2023-05-25T04:04:57.099Z,98.93
2023-05-25T04:07:27.387Z,98.47
2023-05-25T04:09:54.890Z,98.98
2023-05-25T04:12:22.905Z,97.86
2023-05-25T04:14:51.104Z,97.57
2023-05-25T04:17:19.068Z,94.90
2023-05-25T04:19:46.523Z,92.56
2023-05-25T04:22:13.974Z,79.82
2023-05-25T04:24:42.743Z,80.43
2023-05-25T04:27:10.296Z,83.57
2023-05-25T04:29:38.225Z,82.13
2023-05-25T04:32:06.526Z,77.72
2023-05-25T04:34:33.971Z,75.19
2023-05-25T04:37:05.117Z,70.63
2023-05-25T04:39:33.400Z,74.15
2023-05-25T04:42:04.348Z,75.19
2023-05-25T04:44:32.140Z,79.13
2023-05-25T04:47:01.308Z,81.74
2023-05-25T04:49:29.180Z,81.92
2023-05-25T04:51:56.627Z,81.18
2023-05-25T04:54:24.310Z,81.42
2023-05-25T04:56:51.916Z,77.67
2023-05-25T04:59:20.908Z,74.55
2023-05-25T05:01:48.489Z,78.31
2023-05-25T05:04:17.889Z,78.20
2023-05-25T05:06:45.315Z,77.71
2023-05-25T05:09:13.191Z,74.90
2023-05-25T05:11:40.736Z,75.51
2023-05-25T05:14:08.216Z,75.57
2023-05-25T05:16:37.512Z,78.79
2023-05-25T05:19:05.059Z,79.42
2023-05-25T05:21:32.519Z,80.31
2023-05-25T05:23:59.955Z,79.32
2023-05-25T05:26:27.743Z,77.37
2023-05-25T05:28:55.207Z,76.39
2023-05-25T05:31:24.218Z,74.97
2023-05-25T05:33:53.090Z,75.70
2023-05-25T05:36:20.595Z,74.86
2023-05-25T05:38:48.064Z,72.46
2023-05-25T05:41:15.560Z,70.57
2023-05-25T05:43:44.108Z,70.93
2023-05-25T05:46:11.675Z,69.85
2023-05-25T05:48:39.557Z,70.74
2023-05-25T05:51:08.413Z,68.49
2023-05-25T05:53:36.423Z,67.95
2023-05-25T05:56:04.181Z,66.17
2023-05-25T05:58:32.395Z,66.71
2023-05-25T06:01:00.145Z,64.15
2023-05-25T06:03:28.794Z,64.02
2023-05-25T06:05:56.378Z,63.88
2023-05-25T06:08:25.194Z,63.24
2023-05-25T06:10:52.698Z,64.49
2023-05-25T06:13:20.787Z,67.78
2023-05-25T06:15:48.300Z,67.86
2023-05-25T06:18:16.148Z,64.80
2023-05-25T06:20:43.793Z,65.87
2023-05-25T06:23:13.985Z,65.24
2023-05-25T06:25:42.867Z,65.47
2023-05-25T06:28:10.554Z,63.27
2023-05-25T06:30:38.010Z,66.15
2023-05-25T06:33:05.629Z,65.31
2023-05-25T06:35:33.150Z,65.01
2023-05-25T06:38:00.749Z,63.42
2023-05-25T06:40:28.249Z,62.93
2023-05-25T06:42:57.012Z,61.66
2023-05-25T06:45:24.520Z,61.76
2023-05-25T06:47:51.978Z,62.43
2023-05-25T06:50:20.138Z,62.88
2023-05-25T06:52:47.904Z,62.40
2023-05-25T06:55:15.597Z,60.20
2023-05-25T06:57:43.693Z,61.91
2023-05-25T07:00:14.254Z,59.96
2023-05-25T07:02:41.752Z,57.72
2023-05-25T07:05:09.731Z,57.71
2023-05-25T07:07:37.214Z,61.99
2023-05-25T07:10:06.077Z,59.83
2023-05-25T07:12:33.584Z,58.55
2023-05-25T07:15:01.134Z,60.23
2023-05-25T07:17:31.457Z,62.45
2023-05-25T07:19:59.146Z,61.33
2023-05-25T07:22:26.693Z,60.44
2023-05-25T07:24:54.116Z,59.10
2023-05-25T07:27:21.560Z,61.52
2023-05-25T07:29:49.021Z,60.30
2023-05-25T07:32:16.600Z,59.65
2023-05-25T07:34:45.468Z,56.55
2023-05-25T07:37:12.911Z,56.80
2023-05-25T07:39:41.051Z,59.01
2023-05-25T07:42:08.525Z,59.70
2023-05-25T07:44:35.977Z,58.87
2023-05-25T07:47:03.489Z,56.51
2023-05-25T07:49:31.058Z,56.92
2023-05-25T07:51:59.803Z,55.68
2023-05-25T07:54:27.276Z,54.70
2023-05-25T07:56:54.758Z,57.26
2023-05-25T07:59:22.202Z,56.52
2023-05-25T08:01:49.724Z,54.38
2023-05-25T08:04:17.303Z,54.22
2023-05-25T08:06:45.271Z,55.64
2023-05-25T08:09:14.214Z,54.07
2023-05-25T08:11:41.674Z,52.20
2023-05-25T08:14:09.168Z,51.34
2023-05-25T08:16:36.770Z,53.97
2023-05-25T08:19:04.291Z,52.10
2023-05-25T08:21:34.938Z,48.89
2023-05-25T08:24:04.122Z,51.51
2023-05-25T08:26:52.279Z,53.55
2023-05-25T08:29:21.180Z,51.90
2023-05-25T08:31:49.818Z,50.89
2023-05-25T08:34:17.583Z,49.94
2023-05-25T08:36:45.719Z,48.56
2023-05-25T08:39:13.334Z,51.13
2023-05-25T08:41:45.730Z,50.20
2023-05-25T08:44:14.586Z,49.35
2023-05-25T08:46:42.999Z,50.04
2023-05-25T08:49:13.728Z,50.53
2023-05-25T08:51:44.271Z,50.42
2023-05-25T08:54:14.384Z,50.92
2023-05-25T08:56:52.086Z,51.96
2023-05-25T08:59:31.706Z,51.68
2023-05-25T09:02:07.676Z,51.90
2023-05-25T09:04:35.835Z,52.17
2023-05-25T09:07:10.304Z,49.78
2023-05-25T09:09:39.644Z,49.92
2023-05-25T09:12:10.015Z,49.91
2023-05-25T09:14:39.719Z,48.54
2023-05-25T09:17:07.889Z,47.92
2023-05-25T09:19:37.202Z,48.36
2023-05-25T09:22:14.824Z,47.92
2023-05-25T09:24:44.439Z,48.93
2023-05-25T09:27:18.295Z,48.07
2023-05-25T09:29:47.714Z,48.31
2023-05-25T09:32:16.771Z,47.61
2023-05-25T09:34:45.006Z,45.89
2023-05-25T09:37:14.288Z,48.76
2023-05-25T09:39:43.330Z,47.73
2023-05-25T09:42:11.292Z,45.51
2023-05-25T09:44:40.546Z,46.56
2023-05-25T09:47:08.100Z,48.59
2023-05-25T09:49:36.499Z,48.41
2023-05-25T09:52:03.999Z,47.45
2023-05-25T09:54:31.957Z,45.58
2023-05-25T09:57:01.492Z,48.42
2023-05-25T09:59:29.029Z,46.56
2023-05-25T10:01:59.321Z,48.65
2023-05-25T10:04:26.925Z,48.43
2023-05-25T10:06:56.688Z,49.56
2023-05-25T10:09:26.468Z,47.08
2023-05-25T10:11:55.922Z,47.38
2023-05-25T10:14:29.506Z,47.71
2023-05-25T10:17:00.569Z,47.10
2023-05-25T10:19:35.149Z,48.61
2023-05-25T10:22:08.066Z,47.51
2023-05-25T10:24:39.660Z,46.98
2023-05-25T10:27:25.661Z,46.07
2023-05-25T10:29:57.210Z,46.95
2023-05-25T10:32:27.009Z,46.08
2023-05-25T10:34:54.868Z,45.82
2023-05-25T10:37:24.393Z,44.34
2023-05-25T10:39:53.121Z,44.88
2023-05-25T10:42:20.634Z,43.74
2023-05-25T10:44:48.558Z,44.38
2023-05-25T10:47:17.580Z,46.74
2023-05-25T10:49:56.744Z,46.69
2023-05-25T10:52:28.607Z,45.39
2023-05-25T10:54:57.775Z,43.70
2023-05-25T10:57:26.429Z,43.39
2023-05-25T11:00:00.029Z,43.64
2023-05-25T11:02:30.333Z,43.59
2023-05-25T11:05:33.400Z,43.73
2023-05-25T11:08:02.193Z,42.95
2023-05-25T11:10:59.942Z,47.17
2023-05-25T11:13:38.077Z,44.73
2023-05-25T11:16:17.791Z,43.87
2023-05-25T11:18:47.295Z,41.20
2023-05-25T11:21:18.740Z,42.00
2023-05-25T11:23:59.659Z,42.85
2023-05-25T11:26:29.215Z,42.30
2023-05-25T11:28:59.653Z,42.95
2023-05-25T11:31:35.833Z,44.41
2023-05-25T11:34:06.788Z,42.00
2023-05-25T11:36:37.173Z,41.73
2023-05-25T11:39:17.062Z,41.23
2023-05-25T11:41:51.355Z,41.06
2023-05-25T11:44:27.312Z,40.60
2023-05-25T11:46:57.102Z,40.16
2023-05-25T11:49:25.488Z,40.26
2023-05-25T11:51:54.736Z,41.23
2023-05-25T11:54:23.895Z,41.59
2023-05-25T11:56:51.524Z,39.88
2023-05-25T11:59:19.124Z,39.88
2023-05-25T12:01:56.583Z,39.72
2023-05-25T12:04:24.531Z,39.60
2023-05-25T12:06:52.646Z,38.93
2023-05-25T12:09:23.000Z,40.44
2023-05-25T12:11:51.141Z,44.67
2023-05-25T12:14:18.900Z,40.61
2023-05-25T12:16:46.732Z,41.22
2023-05-25T12:19:14.793Z,40.32
2023-05-25T12:21:42.854Z,40.10
2023-05-25T12:24:12.685Z,40.38
2023-05-25T12:26:49.468Z,40.55
2023-05-25T12:29:17.040Z,39.97
2023-05-25T12:31:44.717Z,40.02
2023-05-25T12:34:13.652Z,39.94
2023-05-25T12:36:43.855Z,40.51
2023-05-25T12:39:16.862Z,40.80
2023-05-25T12:41:45.828Z,43.77
2023-05-25T12:44:36.275Z,39.38
2023-05-25T12:47:14.405Z,39.25
2023-05-25T12:49:43.729Z,39.26
2023-05-25T12:52:12.085Z,40.04
2023-05-25T12:54:44.970Z,38.21
2023-05-25T12:57:14.715Z,39.70
2023-05-25T12:59:44.995Z,41.25
2023-05-25T13:02:13.877Z,39.91
2023-05-25T13:04:42.715Z,38.86
2023-05-25T13:07:10.457Z,37.56
2023-05-25T13:09:38.429Z,39.50
2023-05-25T13:12:06.988Z,38.28
2023-05-25T13:14:34.444Z,38.74
2023-05-25T13:17:03.230Z,39.20
2023-05-25T13:19:30.854Z,39.71
2023-05-25T13:21:58.299Z,39.41
2023-05-25T13:24:25.757Z,39.40
2023-05-25T13:26:53.250Z,38.99
2023-05-25T13:29:20.734Z,40.20
2023-05-25T13:31:48.356Z,40.01
2023-05-25T13:34:17.625Z,38.37
2023-05-25T13:36:45.148Z,39.60
2023-05-25T13:39:13.782Z,40.54
2023-05-25T13:41:42.569Z,38.11
2023-05-25T13:44:11.089Z,39.56
2023-05-25T13:46:38.718Z,40.22
2023-05-25T13:49:06.408Z,39.86
2023-05-25T13:51:35.764Z,39.37
2023-05-25T13:54:04.561Z,38.93
2023-05-25T13:56:32.314Z,37.68
2023-05-25T13:58:59.824Z,38.19
2023-05-25T14:01:28.517Z,38.30
2023-05-25T14:03:56.698Z,38.68
2023-05-25T14:06:24.960Z,40.57
2023-05-25T14:08:53.904Z,39.25
2023-05-25T14:11:28.187Z,38.91
2023-05-25T14:13:56.711Z,37.01
2023-05-25T14:16:24.164Z,37.31
2023-05-25T14:18:51.728Z,38.66
2023-05-25T14:21:19.227Z,39.18
2023-05-25T14:23:46.643Z,39.18
2023-05-25T14:26:15.449Z,37.28
2023-05-25T14:28:42.883Z,39.77
2023-05-25T14:31:12.273Z,41.00
2023-05-25T14:33:40.785Z,39.26
2023-05-25T14:36:10.242Z,39.17
2023-05-25T14:38:37.688Z,38.77
2023-05-25T14:41:05.396Z,39.79
2023-05-25T14:43:34.973Z,39.30
2023-05-25T14:46:02.410Z,39.84
2023-05-25T14:48:29.928Z,39.75
2023-05-25T14:50:58.721Z,39.07
2023-05-25T14:53:26.435Z,38.81
2023-05-25T14:55:53.854Z,40.31
2023-05-25T14:58:21.456Z,38.22
2023-05-25T15:00:50.562Z,38.47
2023-05-25T15:03:18.962Z,38.98
2023-05-25T15:05:46.851Z,38.65
2023-05-25T15:08:14.358Z,39.36
2023-05-25T15:10:41.851Z,39.36
2023-05-25T15:13:10.001Z,39.08
2023-05-25T15:15:38.775Z,39.26
2023-05-25T15:18:07.817Z,41.17
2023-05-25T15:20:35.430Z,39.71
2023-05-25T15:23:02.915Z,39.31
2023-05-25T15:25:35.492Z,40.63
2023-05-25T15:28:03.401Z,40.44
2023-05-25T15:30:30.849Z,39.89
2023-05-25T15:32:58.736Z,39.38
2023-05-25T15:35:32.164Z,39.09
2023-05-25T15:37:59.655Z,39.87
2023-05-25T15:40:27.117Z,40.69
2023-05-25T15:42:54.626Z,40.38
2023-05-25T15:45:22.035Z,40.64
2023-05-25T15:47:50.502Z,40.14
2023-05-25T15:50:18.328Z,40.44
2023-05-25T15:52:47.168Z,39.79
2023-05-25T15:55:14.676Z,41.04
2023-05-25T15:57:42.083Z,41.26
2023-05-25T16:00:11.638Z,40.44
2023-05-25T16:02:39.261Z,41.05
2023-05-25T16:05:07.233Z,42.07
2023-05-25T16:07:34.686Z,40.55
2023-05-25T16:10:03.576Z,40.24
2023-05-25T16:12:31.072Z,42.00
2023-05-25T16:14:58.502Z,41.20
2023-05-25T16:17:26.396Z,41.85
2023-05-25T16:19:53.899Z,41.39
2023-05-25T16:22:21.387Z,41.98
2023-05-25T16:24:48.844Z,42.34
2023-05-25T16:27:17.718Z,41.57
2023-05-25T16:29:45.549Z,42.19
2023-05-25T16:32:13.032Z,42.92
2023-05-25T16:34:40.508Z,42.22
2023-05-25T16:37:07.923Z,42.64
2023-05-25T16:39:35.455Z,41.92
2023-05-25T16:42:03.477Z,42.31
2023-05-25T16:44:32.194Z,42.70
2023-05-25T16:46:59.625Z,42.61
2023-05-25T16:49:27.118Z,42.42
2023-05-25T16:51:54.571Z,42.20
2023-05-25T16:54:22.267Z,43.71
2023-05-25T16:56:49.708Z,42.68
2023-05-25T16:59:17.166Z,42.55
2023-05-25T17:01:46.031Z,42.46
2023-05-25T17:04:13.595Z,43.08
2023-05-25T17:06:41.023Z,44.61
2023-05-25T17:09:08.644Z,42.41
2023-05-25T17:11:36.096Z,43.44
2023-05-25T17:14:03.568Z,43.33
2023-05-25T17:16:31.166Z,43.65
2023-05-25T17:18:59.919Z,43.88
2023-05-25T17:21:30.988Z,43.89
2023-05-25T17:23:58.397Z,43.49
2023-05-25T17:26:25.807Z,44.26
2023-05-25T17:28:53.207Z,43.84
2023-05-25T17:31:20.675Z,43.25
2023-05-25T17:33:48.137Z,43.84
2023-05-25T17:36:16.994Z,44.55
2023-05-25T17:38:44.670Z,44.14
2023-05-25T17:41:12.114Z,44.54
2023-05-25T17:43:39.551Z,44.36
2023-05-25T17:46:07.449Z,44.86
2023-05-25T17:48:35.307Z,45.42
2023-05-25T17:51:03.127Z,45.25
2023-05-25T17:53:31.890Z,44.27
2023-05-25T17:55:59.320Z,45.48
2023-05-25T17:58:26.821Z,45.52
2023-05-25T18:00:54.377Z,45.02
2023-05-25T18:03:22.091Z,45.12
2023-05-25T18:05:49.534Z,45.10
2023-05-25T18:08:16.975Z,45.92
2023-05-25T18:10:46.069Z,45.27
2023-05-25T18:13:13.557Z,45.42
2023-05-25T18:15:41.024Z,45.02
2023-05-25T18:18:12.037Z,45.22
2023-05-25T18:20:39.696Z,45.85
2023-05-25T18:23:08.265Z,46.51
2023-05-25T18:25:35.935Z,46.41
2023-05-25T18:28:04.750Z,47.02
2023-05-25T18:30:32.192Z,46.72
2023-05-25T18:32:59.923Z,47.13
2023-05-25T18:35:31.125Z,48.06
2023-05-25T18:37:58.567Z,47.67
2023-05-25T18:40:25.994Z,47.64
2023-05-25T18:42:53.450Z,47.34
2023-05-25T18:45:22.433Z,47.31
2023-05-25T18:47:50.154Z,47.67
2023-05-25T18:50:17.633Z,47.63
2023-05-25T18:52:46.789Z,49.39
2023-05-25T18:55:14.215Z,49.72
2023-05-25T18:57:41.646Z,50.04
2023-05-25T19:00:10.564Z,49.90
2023-05-25T19:02:39.368Z,50.52
2023-05-25T19:05:07.967Z,50.66
2023-05-25T19:07:50.767Z,50.92
2023-05-25T19:10:25.711Z,50.66
2023-05-25T19:12:53.167Z,51.50
2023-05-25T19:15:23.975Z,51.31
2023-05-25T19:17:52.827Z,51.27
2023-05-25T19:20:20.506Z,51.63
2023-05-25T19:22:48.010Z,51.72
2023-05-25T19:25:15.536Z,52.58
2023-05-25T19:27:42.958Z,52.55
2023-05-25T19:30:11.179Z,53.66
2023-05-25T19:32:38.854Z,53.71
2023-05-25T19:35:08.226Z,54.61
2023-05-25T19:37:37.589Z,53.82
2023-05-25T19:40:06.320Z,54.10
2023-05-25T19:42:34.124Z,54.45
2023-05-25T19:45:01.656Z,55.32
2023-05-25T19:47:29.473Z,54.53
2023-05-25T19:49:56.939Z,55.46
2023-05-25T19:52:25.789Z,55.90
2023-05-25T19:54:53.251Z,56.72
2023-05-25T19:57:20.978Z,56.96
2023-05-25T19:59:49.994Z,57.64
2023-05-25T20:02:17.635Z,58.18
2023-05-25T20:04:45.086Z,58.65
2023-05-25T20:07:12.538Z,58.89
2023-05-25T20:09:42.884Z,59.30
2023-05-25T20:12:10.985Z,59.77
2023-05-25T20:14:38.547Z,59.89
2023-05-25T20:17:06.271Z,60.55
2023-05-25T20:19:33.775Z,61.41
2023-05-25T20:22:02.409Z,61.50
2023-05-25T20:24:29.852Z,62.72
2023-05-25T20:26:59.760Z,63.45
2023-05-25T20:29:27.455Z,63.79
2023-05-25T20:31:54.884Z,63.53
2023-05-25T20:34:22.403Z,64.42
2023-05-25T20:36:50.156Z,64.86
2023-05-25T20:39:17.569Z,64.51
2023-05-25T20:41:45.045Z,65.23
2023-05-25T20:44:14.097Z,65.87
2023-05-25T20:46:41.788Z,65.69
2023-05-25T20:49:09.597Z,65.60
2023-05-25T20:51:37.009Z,66.45
2023-05-25T20:54:04.637Z,66.43
2023-05-25T20:56:32.105Z,66.83
2023-05-25T20:58:59.535Z,67.25
2023-05-25T21:01:29.281Z,68.46
2023-05-25T21:03:56.932Z,68.44
2023-05-25T21:06:24.463Z,69.14
2023-05-25T21:08:52.918Z,69.13
2023-05-25T21:11:20.473Z,68.83
2023-05-25T21:13:48.713Z,68.74
2023-05-25T21:16:16.321Z,69.12
2023-05-25T21:18:45.100Z,68.03
2023-05-25T21:21:12.616Z,68.92
2023-05-25T21:23:40.089Z,68.82
2023-05-25T21:26:07.955Z,69.02
2023-05-25T21:28:35.359Z,69.92
2023-05-25T21:31:02.820Z,70.48
2023-05-25T21:33:35.452Z,70.05
2023-05-25T21:36:04.807Z,70.26
2023-05-25T21:38:32.225Z,71.10
2023-05-25T21:40:59.891Z,70.42
2023-05-25T21:43:27.937Z,70.76
2023-05-25T21:45:55.421Z,70.98
2023-05-25T21:48:22.848Z,71.66
2023-05-25T21:50:51.141Z,71.29
2023-05-25T21:53:20.528Z,71.42
2023-05-25T21:55:48.161Z,71.68
2023-05-25T21:58:16.827Z,72.12
2023-05-25T22:00:44.308Z,72.68
2023-05-25T22:03:11.960Z,72.42
2023-05-25T22:05:39.556Z,72.49
2023-05-25T22:08:07.517Z,73.06
2023-05-25T22:10:36.510Z,73.04
2023-05-25T22:13:04.998Z,72.88
2023-05-25T22:15:32.513Z,73.58
2023-05-25T22:18:00.301Z,74.17
2023-05-25T22:20:27.879Z,74.12
2023-05-25T22:22:55.440Z,74.13
2023-05-25T22:25:22.971Z,74.44
2023-05-25T22:27:51.735Z,75.22
2023-05-25T22:30:19.312Z,76.03
2023-05-25T22:32:46.783Z,75.59
2023-05-25T22:35:14.221Z,76.12
2023-05-25T22:37:41.817Z,76.84
2023-05-25T22:40:10.327Z,76.48
2023-05-25T22:42:37.767Z,76.55
2023-05-25T22:45:07.946Z,76.97
2023-05-25T22:47:35.726Z,76.83
2023-05-25T22:50:03.280Z,76.97
2023-05-25T22:52:30.690Z,76.74
2023-05-25T22:54:58.110Z,76.25
2023-05-25T22:57:25.538Z,76.32
2023-05-25T22:59:52.953Z,77.44
2023-05-25T23:02:21.806Z,77.75
2023-05-25T23:04:49.282Z,78.22
2023-05-25T23:07:16.703Z,78.62
2023-05-25T23:09:44.152Z,78.19
2023-05-25T23:12:11.630Z,78.82
2023-05-25T23:14:39.093Z,78.68
2023-05-25T23:17:06.546Z,80.14
2023-05-25T23:19:35.633Z,80.37
2023-05-25T23:22:03.042Z,81.02
2023-05-25T23:24:30.601Z,80.89
2023-05-25T23:26:58.082Z,81.38
2023-05-25T23:29:25.521Z,81.98
2023-05-25T23:31:52.986Z,81.41
2023-05-25T23:34:20.664Z,81.09
2023-05-25T23:36:49.435Z,81.89
2023-05-25T23:39:16.869Z,81.32
2023-05-25T23:41:44.261Z,81.31
2023-05-25T23:44:11.667Z,81.68
2023-05-25T23:46:39.135Z,81.67
2023-05-25T23:49:06.560Z,81.53
2023-05-25T23:51:34.017Z,81.89
2023-05-25T23:54:02.787Z,82.70
2023-05-25T23:56:32.235Z,82.59
2023-05-25T23:58:59.734Z,82.57
